createdAt,value
2018-08-17T00:00:33.858Z,1013.06
2018-08-17T00:01:33.903Z,1013.03
2018-08-17T00:02:33.713Z,1013.05
2018-08-17T00:03:33.796Z,1013.03
2018-08-17T00:04:33.801Z,1013.04
2018-08-17T00:05:33.672Z,1013.02
2018-08-17T00:06:33.872Z,1013
2018-08-17T00:07:33.650Z,1013.01
2018-08-17T00:08:33.897Z,1012.99
2018-08-17T00:09:33.715Z,1012.95
2018-08-17T00:10:33.862Z,1012.99
2018-08-17T00:11:33.782Z,1013
2018-08-17T00:12:33.664Z,1012.99
2018-08-17T00:13:33.570Z,1012.97
2018-08-17T00:14:33.866Z,1012.96
2018-08-17T00:15:33.714Z,1012.97
2018-08-17T00:16:33.924Z,1012.95
2018-08-17T00:17:33.763Z,1012.97
2018-08-17T00:18:33.758Z,1012.92
2018-08-17T00:19:33.677Z,1012.92
2018-08-17T00:20:33.668Z,1012.93
2018-08-17T00:21:33.905Z,1012.9
2018-08-17T00:22:33.724Z,1012.89
2018-08-17T00:23:33.879Z,1012.87
2018-08-17T00:24:33.843Z,1012.84
2018-08-17T00:25:33.769Z,1012.87
2018-08-17T00:26:33.892Z,1012.85
2018-08-17T00:27:33.802Z,1012.9
2018-08-17T00:28:33.731Z,1012.83
2018-08-17T00:29:33.816Z,1012.85
2018-08-17T00:30:33.788Z,1012.83
2018-08-17T00:31:33.692Z,1012.81
2018-08-17T00:32:33.654Z,1012.84
2018-08-17T00:33:33.918Z,1012.86
2018-08-17T00:34:34.019Z,1012.87
2018-08-17T00:35:33.855Z,1012.91
2018-08-17T00:36:33.964Z,1012.91
2018-08-17T00:37:33.681Z,1012.91
2018-08-17T00:38:33.957Z,1012.95
2018-08-17T00:39:33.748Z,1012.95
2018-08-17T00:40:33.747Z,1012.93
2018-08-17T00:41:33.669Z,1012.93
2018-08-17T00:42:33.708Z,1012.93
2018-08-17T00:43:33.733Z,1012.91
2018-08-17T00:44:33.650Z,1012.96
2018-08-17T00:45:33.682Z,1012.94
2018-08-17T00:46:33.897Z,1012.94
2018-08-17T00:47:33.769Z,1012.92
2018-08-17T00:48:33.744Z,1012.98
2018-08-17T00:49:33.709Z,1012.94
2018-08-17T00:50:33.823Z,1012.94
2018-08-17T00:51:33.656Z,1012.93
2018-08-17T00:52:33.794Z,1012.95
2018-08-17T00:53:33.852Z,1012.93
2018-08-17T00:54:33.681Z,1012.96
2018-08-17T00:55:33.910Z,1012.94
2018-08-17T00:56:33.803Z,1013
2018-08-17T00:57:33.740Z,1012.91
2018-08-17T00:58:33.778Z,1012.91
2018-08-17T00:59:33.849Z,1012.89
2018-08-17T01:00:33.745Z,1012.87
2018-08-17T01:01:33.591Z,1012.85
2018-08-17T01:02:33.627Z,1012.85
2018-08-17T01:03:33.809Z,1012.8
2018-08-17T01:04:33.882Z,1012.84
2018-08-17T01:05:33.890Z,1012.86
2018-08-17T01:06:33.936Z,1012.8
2018-08-17T01:07:33.632Z,1012.82
2018-08-17T01:08:33.745Z,1012.84
2018-08-17T01:09:33.843Z,1012.84
2018-08-17T01:10:33.915Z,1012.85
2018-08-17T01:11:33.752Z,1012.84
2018-08-17T01:12:33.647Z,1012.8
2018-08-17T01:13:33.682Z,1012.83
2018-08-17T01:14:33.872Z,1012.81
2018-08-17T01:15:33.999Z,1012.81
2018-08-17T01:16:33.647Z,1012.81
2018-08-17T01:17:33.891Z,1012.77
2018-08-17T01:18:33.798Z,1012.83
2018-08-17T01:19:33.644Z,1012.81
2018-08-17T01:20:33.593Z,1012.77
2018-08-17T01:21:33.808Z,1012.77
2018-08-17T01:22:33.739Z,1012.76
2018-08-17T01:23:33.623Z,1012.74
2018-08-17T01:24:33.785Z,1012.73
2018-08-17T01:25:33.604Z,1012.74
2018-08-17T01:26:33.759Z,1012.75
2018-08-17T01:27:33.684Z,1012.76
2018-08-17T01:28:33.689Z,1012.78
2018-08-17T01:29:33.677Z,1012.81
2018-08-17T01:30:33.662Z,1012.87
2018-08-17T01:31:33.829Z,1012.8
2018-08-17T01:32:33.661Z,1012.84
2018-08-17T01:33:33.664Z,1012.86
2018-08-17T01:34:33.680Z,1012.88
2018-08-17T01:35:33.613Z,1012.81
2018-08-17T01:36:33.794Z,1012.8
2018-08-17T01:37:33.735Z,1012.85
2018-08-17T01:38:33.934Z,1012.84
2018-08-17T01:39:33.694Z,1012.87
2018-08-17T01:40:33.825Z,1012.9
2018-08-17T01:41:33.693Z,1012.88
2018-08-17T01:42:33.747Z,1012.87
2018-08-17T01:43:33.639Z,1012.89
2018-08-17T01:44:33.599Z,1012.87
2018-08-17T01:45:33.816Z,1012.89
2018-08-17T01:46:34.041Z,1012.89
2018-08-17T01:47:33.639Z,1012.92
2018-08-17T01:48:33.725Z,1012.91
2018-08-17T01:49:33.788Z,1012.91
2018-08-17T01:50:33.754Z,1012.94
2018-08-17T01:51:34.150Z,1012.95
2018-08-17T01:52:33.664Z,1012.92
2018-08-17T01:53:33.643Z,1012.88
2018-08-17T01:54:33.874Z,1012.85
2018-08-17T01:55:34.245Z,1012.89
2018-08-17T01:56:33.926Z,1012.85
2018-08-17T01:57:33.813Z,1012.89
2018-08-17T01:58:33.945Z,1012.87
2018-08-17T01:59:33.783Z,1012.84
2018-08-17T02:00:33.709Z,1012.81
2018-08-17T02:01:33.711Z,1012.8
2018-08-17T02:02:33.711Z,1012.84
2018-08-17T02:03:33.957Z,1012.86
2018-08-17T02:04:33.698Z,1012.84
2018-08-17T02:05:33.779Z,1012.82
2018-08-17T02:06:33.611Z,1012.83
2018-08-17T02:07:33.789Z,1012.81
2018-08-17T02:08:33.921Z,1012.81
2018-08-17T02:09:33.666Z,1012.82
2018-08-17T02:10:33.860Z,1012.8
2018-08-17T02:11:33.972Z,1012.8
2018-08-17T02:12:33.669Z,1012.82
2018-08-17T02:13:33.620Z,1012.82
2018-08-17T02:14:34.006Z,1012.83
2018-08-17T02:15:33.892Z,1012.8
2018-08-17T02:16:33.787Z,1012.78
2018-08-17T02:17:33.620Z,1012.78
2018-08-17T02:18:33.664Z,1012.76
2018-08-17T02:19:33.844Z,1012.76
2018-08-17T02:20:33.671Z,1012.74
2018-08-17T02:21:33.665Z,1012.77
2018-08-17T02:22:34.013Z,1012.75
2018-08-17T02:23:33.581Z,1012.78
2018-08-17T02:24:34.225Z,1012.81
2018-08-17T02:25:33.724Z,1012.77
2018-08-17T02:26:33.720Z,1012.77
2018-08-17T02:27:33.671Z,1012.76
2018-08-17T02:28:33.717Z,1012.76
2018-08-17T02:29:33.762Z,1012.76
2018-08-17T02:30:33.782Z,1012.72
2018-08-17T02:31:33.920Z,1012.72
2018-08-17T02:32:33.689Z,1012.72
2018-08-17T02:33:33.852Z,1012.7
2018-08-17T02:34:33.774Z,1012.76
2018-08-17T02:35:33.556Z,1012.7
2018-08-17T02:36:33.829Z,1012.72
2018-08-17T02:37:33.886Z,1012.65
2018-08-17T02:38:33.766Z,1012.69
2018-08-17T02:39:33.622Z,1012.64
2018-08-17T02:40:33.653Z,1012.66
2018-08-17T02:41:33.675Z,1012.66
2018-08-17T02:42:33.859Z,1012.66
2018-08-17T02:43:33.583Z,1012.62
2018-08-17T02:44:33.764Z,1012.64
2018-08-17T02:45:33.602Z,1012.63
2018-08-17T02:46:33.636Z,1012.63
2018-08-17T02:47:33.675Z,1012.59
2018-08-17T02:48:33.597Z,1012.6
2018-08-17T02:49:33.702Z,1012.58
2018-08-17T02:50:33.622Z,1012.58
2018-08-17T02:51:33.712Z,1012.59
2018-08-17T02:52:33.655Z,1012.63
2018-08-17T02:53:33.733Z,1012.66
2018-08-17T02:54:33.650Z,1012.65
2018-08-17T02:55:33.794Z,1012.69
2018-08-17T02:56:33.798Z,1012.68
2018-08-17T02:57:33.639Z,1012.72
2018-08-17T02:58:33.686Z,1012.76
2018-08-17T02:59:33.765Z,1012.79
2018-08-17T03:00:33.723Z,1012.82
2018-08-17T03:01:33.875Z,1012.82
2018-08-17T03:02:33.859Z,1012.88
2018-08-17T03:03:33.669Z,1012.79
2018-08-17T03:04:33.860Z,1012.77
2018-08-17T03:05:33.770Z,1012.79
2018-08-17T03:06:33.825Z,1012.79
2018-08-17T03:07:33.695Z,1012.8
2018-08-17T03:08:34.149Z,1012.74
2018-08-17T03:09:33.833Z,1012.76
2018-08-17T03:10:33.765Z,1012.73
2018-08-17T03:11:33.749Z,1012.72
2018-08-17T03:12:33.819Z,1012.72
2018-08-17T03:13:33.675Z,1012.79
2018-08-17T03:14:33.947Z,1012.75
2018-08-17T03:15:33.687Z,1012.76
2018-08-17T03:16:33.755Z,1012.79
2018-08-17T03:17:34.117Z,1012.77
2018-08-17T03:18:33.937Z,1012.82
2018-08-17T03:19:33.698Z,1012.81
2018-08-17T03:20:33.923Z,1012.81
2018-08-17T03:21:33.652Z,1012.77
2018-08-17T03:22:34.107Z,1012.83
2018-08-17T03:23:33.550Z,1012.8
2018-08-17T03:24:33.844Z,1012.83
2018-08-17T03:25:33.711Z,1012.82
2018-08-17T03:26:33.712Z,1012.84
2018-08-17T03:27:33.708Z,1012.82
2018-08-17T03:28:33.817Z,1012.8
2018-08-17T03:29:33.911Z,1012.84
2018-08-17T03:30:33.816Z,1012.84
2018-08-17T03:31:33.706Z,1012.86
2018-08-17T03:32:33.814Z,1012.83
2018-08-17T03:33:34.071Z,1012.86
2018-08-17T03:34:33.754Z,1012.82
2018-08-17T03:35:33.940Z,1012.86
2018-08-17T03:36:33.762Z,1012.85
2018-08-17T03:37:33.659Z,1012.87
2018-08-17T03:38:33.775Z,1012.89
2018-08-17T03:39:33.739Z,1012.86
2018-08-17T03:40:33.815Z,1012.91
2018-08-17T03:41:33.639Z,1012.9
2018-08-17T03:42:33.701Z,1012.9
2018-08-17T03:43:33.664Z,1012.89
2018-08-17T03:44:33.705Z,1012.87
2018-08-17T03:45:33.705Z,1012.91
2018-08-17T03:46:33.646Z,1012.93
2018-08-17T03:47:33.808Z,1012.94
2018-08-17T03:48:33.672Z,1012.91
2018-08-17T03:49:33.858Z,1012.94
2018-08-17T03:50:33.603Z,1012.9
2018-08-17T03:51:33.597Z,1012.92
2018-08-17T03:52:33.570Z,1012.94
2018-08-17T03:53:33.781Z,1012.94
2018-08-17T03:54:33.703Z,1012.97
2018-08-17T03:55:33.771Z,1012.99
2018-08-17T03:56:33.656Z,1012.98
2018-08-17T03:57:33.571Z,1012.98
2018-08-17T03:58:33.786Z,1013.02
2018-08-17T03:59:33.618Z,1013
2018-08-17T04:00:33.855Z,1013.03
2018-08-17T04:01:33.639Z,1013.01
2018-08-17T04:02:33.645Z,1013.05
2018-08-17T04:03:33.608Z,1013.08
2018-08-17T04:04:33.749Z,1013.11
2018-08-17T04:05:33.817Z,1013.12
2018-08-17T04:06:33.806Z,1013.12
2018-08-17T04:07:33.817Z,1013.13
2018-08-17T04:08:33.604Z,1013.14
2018-08-17T04:09:33.573Z,1013.13
2018-08-17T04:10:33.786Z,1013.17
2018-08-17T04:11:33.895Z,1013.14
2018-08-17T04:12:33.787Z,1013.13
2018-08-17T04:13:33.843Z,1013.11
2018-08-17T04:14:33.714Z,1013.12
2018-08-17T04:15:34.139Z,1013.1
2018-08-17T04:16:33.764Z,1013.11
2018-08-17T04:17:33.630Z,1013.12
2018-08-17T04:18:33.637Z,1013.15
2018-08-17T04:19:33.755Z,1013.14
2018-08-17T04:20:33.648Z,1013.15
2018-08-17T04:21:33.946Z,1013.18
2018-08-17T04:22:33.695Z,1013.21
2018-08-17T04:23:33.623Z,1013.22
2018-08-17T04:24:34.072Z,1013.18
2018-08-17T04:25:33.946Z,1013.19
2018-08-17T04:26:33.620Z,1013.22
2018-08-17T04:27:33.662Z,1013.23
2018-08-17T04:28:33.916Z,1013.25
2018-08-17T04:29:33.798Z,1013.24
2018-08-17T04:30:33.746Z,1013.25
2018-08-17T04:31:33.729Z,1013.27
2018-08-17T04:32:33.733Z,1013.31
2018-08-17T04:33:33.917Z,1013.3
2018-08-17T04:34:33.856Z,1013.33
2018-08-17T04:35:33.956Z,1013.32
2018-08-17T04:36:33.983Z,1013.37
2018-08-17T04:37:33.710Z,1013.38
2018-08-17T04:38:33.710Z,1013.36
2018-08-17T04:39:33.767Z,1013.39
2018-08-17T04:40:33.643Z,1013.39
2018-08-17T04:41:33.605Z,1013.4
2018-08-17T04:42:33.856Z,1013.42
2018-08-17T04:43:33.952Z,1013.43
2018-08-17T04:44:33.810Z,1013.45
2018-08-17T04:45:33.738Z,1013.46
2018-08-17T04:46:33.491Z,1013.48
2018-08-17T04:47:33.841Z,1013.48
2018-08-17T04:48:34.004Z,1013.47
2018-08-17T04:49:33.725Z,1013.51
2018-08-17T04:50:33.837Z,1013.48
2018-08-17T04:51:33.743Z,1013.49
2018-08-17T04:52:33.683Z,1013.49
2018-08-17T04:53:33.864Z,1013.53
2018-08-17T04:54:33.778Z,1013.52
2018-08-17T04:55:33.618Z,1013.53
2018-08-17T04:56:34.014Z,1013.56
2018-08-17T04:57:33.804Z,1013.6
2018-08-17T04:58:33.816Z,1013.59
2018-08-17T04:59:33.806Z,1013.63
2018-08-17T05:00:33.727Z,1013.63
2018-08-17T05:01:33.804Z,1013.59
2018-08-17T05:02:33.863Z,1013.67
2018-08-17T05:03:33.993Z,1013.69
2018-08-17T05:04:33.586Z,1013.67
2018-08-17T05:05:33.852Z,1013.68
2018-08-17T05:06:33.670Z,1013.72
2018-08-17T05:07:33.673Z,1013.68
2018-08-17T05:08:33.696Z,1013.7
2018-08-17T05:09:33.627Z,1013.68
2018-08-17T05:10:33.712Z,1013.66
2018-08-17T05:11:33.767Z,1013.66
2018-08-17T05:12:33.643Z,1013.69
2018-08-17T05:13:33.518Z,1013.66
2018-08-17T05:14:33.702Z,1013.68
2018-08-17T05:15:33.793Z,1013.74
2018-08-17T05:16:33.544Z,1013.72
2018-08-17T05:17:33.790Z,1013.81
2018-08-17T05:18:33.617Z,1013.78
2018-08-17T05:19:33.773Z,1013.79
2018-08-17T05:20:33.528Z,1013.82
2018-08-17T05:21:34.127Z,1013.85
2018-08-17T05:22:33.636Z,1013.85
2018-08-17T05:23:33.601Z,1013.85
2018-08-17T05:24:33.625Z,1013.88
2018-08-17T05:25:33.544Z,1013.86
2018-08-17T05:26:33.997Z,1013.9
2018-08-17T05:27:33.801Z,1013.86
2018-08-17T05:28:33.648Z,1013.88
2018-08-17T05:29:33.690Z,1013.87
2018-08-17T05:30:33.704Z,1013.88
2018-08-17T05:31:33.786Z,1013.86
2018-08-17T05:32:33.657Z,1013.87
2018-08-17T05:33:33.733Z,1013.87
2018-08-17T05:34:33.702Z,1013.88
2018-08-17T05:35:33.677Z,1013.89
2018-08-17T05:36:33.710Z,1013.9
2018-08-17T05:37:33.711Z,1013.93
2018-08-17T05:38:33.714Z,1013.94
2018-08-17T05:39:33.767Z,1013.94
2018-08-17T05:40:33.657Z,1013.9
2018-08-17T05:41:33.614Z,1013.91
2018-08-17T05:42:33.743Z,1013.95
2018-08-17T05:43:33.693Z,1013.94
2018-08-17T05:44:33.806Z,1013.99
2018-08-17T05:45:33.774Z,1014.01
2018-08-17T05:46:33.821Z,1014.05
2018-08-17T05:47:33.609Z,1014.02
2018-08-17T05:48:33.832Z,1014.04
2018-08-17T05:49:33.698Z,1014.08
2018-08-17T05:50:33.780Z,1014.07
2018-08-17T05:51:33.714Z,1014.11
2018-08-17T05:52:33.642Z,1014.08
2018-08-17T05:53:33.738Z,1014.13
2018-08-17T05:54:33.664Z,1014.14
2018-08-17T05:55:33.667Z,1014.13
2018-08-17T05:56:33.998Z,1014.14
2018-08-17T05:57:33.699Z,1014.12
2018-08-17T05:58:33.682Z,1014.13
2018-08-17T05:59:33.579Z,1014.13
2018-08-17T06:00:33.506Z,1014.14
2018-08-17T06:01:33.794Z,1014.13
2018-08-17T06:02:33.731Z,1014.16
2018-08-17T06:03:33.881Z,1014.12
2018-08-17T06:04:33.780Z,1014.17
2018-08-17T06:05:33.738Z,1014.12
2018-08-17T06:06:33.714Z,1014.16
2018-08-17T06:07:33.720Z,1014.15
2018-08-17T06:08:33.811Z,1014.19
2018-08-17T06:09:33.895Z,1014.2
2018-08-17T06:10:33.722Z,1014.21
2018-08-17T06:11:33.881Z,1014.19
2018-08-17T06:12:33.625Z,1014.17
2018-08-17T06:13:33.641Z,1014.18
2018-08-17T06:14:33.659Z,1014.12
2018-08-17T06:15:33.674Z,1014.13
2018-08-17T06:16:33.747Z,1014.09
2018-08-17T06:17:33.860Z,1014.11
2018-08-17T06:18:33.758Z,1014.16
2018-08-17T06:19:33.676Z,1014.18
2018-08-17T06:20:34.718Z,1014.2
2018-08-17T06:21:33.756Z,1014.22
2018-08-17T06:22:33.781Z,1014.19
2018-08-17T06:23:33.632Z,1014.14
2018-08-17T06:24:33.575Z,1014.15
2018-08-17T06:25:33.698Z,1014.14
2018-08-17T06:26:33.611Z,1014.16
2018-08-17T06:27:33.770Z,1014.18
2018-08-17T06:28:33.635Z,1014.19
2018-08-17T06:29:33.455Z,1014.2
2018-08-17T06:30:33.644Z,1014.2
2018-08-17T06:31:33.794Z,1014.24
2018-08-17T06:32:33.720Z,1014.24
2018-08-17T06:33:33.565Z,1014.26
2018-08-17T06:34:33.707Z,1014.29
2018-08-17T06:35:33.635Z,1014.27
2018-08-17T06:36:33.693Z,1014.27
2018-08-17T06:37:33.637Z,1014.25
2018-08-17T06:38:33.468Z,1014.28
2018-08-17T06:39:33.603Z,1014.25
2018-08-17T06:40:33.651Z,1014.31
2018-08-17T06:41:33.623Z,1014.28
2018-08-17T06:42:34.285Z,1014.33
2018-08-17T06:43:33.599Z,1014.35
2018-08-17T06:44:33.709Z,1014.4
2018-08-17T06:45:33.714Z,1014.37
2018-08-17T06:46:33.537Z,1014.4
2018-08-17T06:47:33.680Z,1014.38
2018-08-17T06:48:33.544Z,1014.41
2018-08-17T06:49:33.535Z,1014.41
2018-08-17T06:50:33.873Z,1014.42
2018-08-17T06:51:33.696Z,1014.39
2018-08-17T06:52:33.588Z,1014.41
2018-08-17T06:53:33.696Z,1014.43
2018-08-17T06:54:33.662Z,1014.41
2018-08-17T06:55:33.671Z,1014.43
2018-08-17T06:56:33.813Z,1014.42
2018-08-17T06:57:34.075Z,1014.42
2018-08-17T06:58:33.604Z,1014.38
2018-08-17T06:59:33.507Z,1014.4
2018-08-17T07:00:33.655Z,1014.4
2018-08-17T07:01:33.641Z,1014.43
2018-08-17T07:02:33.896Z,1014.47
2018-08-17T07:03:33.755Z,1014.44
2018-08-17T07:04:33.943Z,1014.47
2018-08-17T07:05:33.734Z,1014.42
2018-08-17T07:06:33.786Z,1014.42
2018-08-17T07:07:34.077Z,1014.44
2018-08-17T07:08:34.211Z,1014.41
2018-08-17T07:09:33.937Z,1014.45
2018-08-17T07:10:34.038Z,1014.38
2018-08-17T07:11:33.623Z,1014.45
2018-08-17T07:12:33.646Z,1014.44
2018-08-17T07:13:34.177Z,1014.42
2018-08-17T07:14:33.787Z,1014.44
2018-08-17T07:15:33.809Z,1014.49
2018-08-17T07:16:33.780Z,1014.52
2018-08-17T07:17:34.171Z,1014.53
2018-08-17T07:18:34.032Z,1014.54
2018-08-17T07:19:33.891Z,1014.56
2018-08-17T07:20:33.799Z,1014.57
2018-08-17T07:21:33.900Z,1014.62
2018-08-17T07:22:34.174Z,1014.65
2018-08-17T07:23:33.713Z,1014.68
2018-08-17T07:24:33.806Z,1014.71
2018-08-17T07:25:33.833Z,1014.71
2018-08-17T07:26:33.724Z,1014.73
2018-08-17T07:27:33.541Z,1014.76
2018-08-17T07:28:33.644Z,1014.76
2018-08-17T07:29:33.651Z,1014.77
2018-08-17T07:30:33.744Z,1014.82
2018-08-17T07:31:33.780Z,1014.77
2018-08-17T07:32:34.169Z,1014.78
2018-08-17T07:33:33.671Z,1014.77
2018-08-17T07:34:33.615Z,1014.84
2018-08-17T07:35:33.936Z,1014.88
2018-08-17T07:36:33.777Z,1014.81
2018-08-17T07:37:33.673Z,1014.82
2018-08-17T07:38:33.738Z,1014.83
2018-08-17T07:39:33.559Z,1014.8
2018-08-17T07:40:33.673Z,1014.85
2018-08-17T07:41:33.699Z,1014.87
2018-08-17T07:42:33.541Z,1014.87
2018-08-17T07:43:33.546Z,1014.94
2018-08-17T07:44:33.620Z,1014.92
2018-08-17T07:45:33.594Z,1014.93
2018-08-17T07:46:33.676Z,1014.91
2018-08-17T07:47:33.619Z,1014.95
2018-08-17T07:48:33.658Z,1014.96
2018-08-17T07:49:33.626Z,1014.97
2018-08-17T07:50:33.783Z,1015.03
2018-08-17T07:51:33.645Z,1015
2018-08-17T07:52:33.517Z,1015.05
2018-08-17T07:53:33.513Z,1015.03
2018-08-17T07:54:33.594Z,1015
2018-08-17T07:55:33.832Z,1015.01
2018-08-17T07:56:33.703Z,1015.05
2018-08-17T07:57:33.722Z,1015.01
2018-08-17T07:58:33.684Z,1015
2018-08-17T07:59:33.762Z,1015.03
2018-08-17T08:00:33.696Z,1014.99
2018-08-17T08:01:33.783Z,1014.98
2018-08-17T08:02:33.714Z,1015.04
2018-08-17T08:03:33.653Z,1015.03
2018-08-17T08:04:33.757Z,1015.05
2018-08-17T08:05:33.742Z,1015.01
2018-08-17T08:06:33.817Z,1015.02
2018-08-17T08:07:33.677Z,1015.05
2018-08-17T08:08:33.806Z,1015.05
2018-08-17T08:09:33.668Z,1015.07
2018-08-17T08:10:33.520Z,1015.06
2018-08-17T08:11:33.699Z,1015.04
2018-08-17T08:12:33.776Z,1015.05
2018-08-17T08:13:33.800Z,1015.04
2018-08-17T08:14:33.673Z,1015.04
2018-08-17T08:15:33.700Z,1015.06
2018-08-17T08:16:33.663Z,1015.06
2018-08-17T08:17:33.553Z,1015.04
2018-08-17T08:18:33.738Z,1015.05
2018-08-17T08:19:33.743Z,1015.08
2018-08-17T08:20:33.585Z,1015.11
2018-08-17T08:21:33.690Z,1015.11
2018-08-17T08:22:33.823Z,1015.12
2018-08-17T08:23:33.622Z,1015.16
2018-08-17T08:24:33.749Z,1015.14
2018-08-17T08:25:33.682Z,1015.22
2018-08-17T08:26:33.447Z,1015.16
2018-08-17T08:27:33.738Z,1015.2
2018-08-17T08:28:33.596Z,1015.21
2018-08-17T08:29:33.744Z,1015.23
2018-08-17T08:30:33.683Z,1015.24
2018-08-17T08:31:33.651Z,1015.25
2018-08-17T08:32:33.833Z,1015.29
2018-08-17T08:33:33.744Z,1015.31
2018-08-17T08:34:33.625Z,1015.32
2018-08-17T08:35:33.682Z,1015.31
2018-08-17T08:36:33.705Z,1015.32
2018-08-17T08:37:33.545Z,1015.33
2018-08-17T08:38:33.648Z,1015.34
2018-08-17T08:39:33.614Z,1015.35
2018-08-17T08:40:33.642Z,1015.38
2018-08-17T08:41:33.881Z,1015.35
2018-08-17T08:42:33.715Z,1015.36
2018-08-17T08:43:33.731Z,1015.4
2018-08-17T08:44:33.703Z,1015.42
2018-08-17T08:45:33.805Z,1015.43
2018-08-17T08:46:34.224Z,1015.49
2018-08-17T08:47:33.607Z,1015.45
2018-08-17T08:48:33.680Z,1015.47
2018-08-17T08:49:33.597Z,1015.47
2018-08-17T08:50:33.638Z,1015.47
2018-08-17T08:51:33.764Z,1015.48
2018-08-17T08:52:33.772Z,1015.51
2018-08-17T08:53:33.727Z,1015.46
2018-08-17T08:54:33.620Z,1015.51
2018-08-17T08:55:33.611Z,1015.48
2018-08-17T08:56:33.693Z,1015.49
2018-08-17T08:57:33.554Z,1015.49
2018-08-17T08:58:33.719Z,1015.49
2018-08-17T08:59:33.685Z,1015.53
2018-08-17T09:00:33.565Z,1015.49
2018-08-17T09:01:33.602Z,1015.49
2018-08-17T09:02:33.572Z,1015.52
2018-08-17T09:03:33.769Z,1015.48
2018-08-17T09:04:33.598Z,1015.53
2018-08-17T09:05:33.606Z,1015.54
2018-08-17T09:06:33.551Z,1015.54
2018-08-17T09:07:33.679Z,1015.52
2018-08-17T09:08:33.637Z,1015.54
2018-08-17T09:09:33.805Z,1015.52
2018-08-17T09:10:33.719Z,1015.52
2018-08-17T09:11:33.515Z,1015.54
2018-08-17T09:12:33.658Z,1015.52
2018-08-17T09:13:33.782Z,1015.49
2018-08-17T09:14:33.595Z,1015.5
2018-08-17T09:15:33.665Z,1015.47
2018-08-17T09:16:33.653Z,1015.52
2018-08-17T09:17:33.608Z,1015.52
2018-08-17T09:18:33.826Z,1015.49
2018-08-17T09:19:33.790Z,1015.55
2018-08-17T09:20:33.745Z,1015.51
2018-08-17T09:21:33.766Z,1015.52
2018-08-17T09:22:33.602Z,1015.49
2018-08-17T09:23:33.762Z,1015.46
2018-08-17T09:24:33.685Z,1015.46
2018-08-17T09:25:33.896Z,1015.47
2018-08-17T09:26:33.794Z,1015.46
2018-08-17T09:27:33.664Z,1015.51
2018-08-17T09:28:33.664Z,1015.48
2018-08-17T09:29:33.496Z,1015.46
2018-08-17T09:30:33.546Z,1015.46
2018-08-17T09:31:33.744Z,1015.42
2018-08-17T09:32:33.722Z,1015.42
2018-08-17T09:33:33.667Z,1015.49
2018-08-17T09:34:33.672Z,1015.45
2018-08-17T09:35:33.643Z,1015.44
2018-08-17T09:36:33.757Z,1015.51
2018-08-17T09:37:33.621Z,1015.49
2018-08-17T09:38:33.807Z,1015.49
2018-08-17T09:39:33.661Z,1015.47
2018-08-17T09:40:33.633Z,1015.45
2018-08-17T09:41:33.827Z,1015.45
2018-08-17T09:42:33.484Z,1015.44
2018-08-17T09:43:33.781Z,1015.45
2018-08-17T09:44:33.704Z,1015.47
2018-08-17T09:45:33.727Z,1015.46
2018-08-17T09:46:33.674Z,1015.43
2018-08-17T09:47:33.639Z,1015.43
2018-08-17T09:48:33.575Z,1015.43
2018-08-17T09:49:33.923Z,1015.44
2018-08-17T09:50:33.728Z,1015.46
2018-08-17T09:51:33.493Z,1015.46
2018-08-17T09:52:33.726Z,1015.45
2018-08-17T09:53:33.645Z,1015.44
2018-08-17T09:54:33.481Z,1015.42
2018-08-17T09:55:33.677Z,1015.41
2018-08-17T09:56:33.794Z,1015.38
2018-08-17T09:57:33.906Z,1015.42
2018-08-17T09:58:33.722Z,1015.47
2018-08-17T09:59:33.724Z,1015.45
2018-08-17T10:00:33.692Z,1015.43
2018-08-17T10:01:33.688Z,1015.39
2018-08-17T10:02:33.491Z,1015.42
2018-08-17T10:03:33.684Z,1015.44
2018-08-17T10:04:33.723Z,1015.41
2018-08-17T10:05:33.609Z,1015.41
2018-08-17T10:06:33.788Z,1015.39
2018-08-17T10:07:33.786Z,1015.43
2018-08-17T10:08:33.738Z,1015.42
2018-08-17T10:09:34.635Z,1015.39
2018-08-17T10:10:33.813Z,1015.35
2018-08-17T10:11:33.520Z,1015.36
2018-08-17T10:12:33.634Z,1015.38
2018-08-17T10:13:33.596Z,1015.37
2018-08-17T10:14:33.671Z,1015.38
2018-08-17T10:15:33.567Z,1015.4
2018-08-17T10:16:33.677Z,1015.39
2018-08-17T10:17:33.809Z,1015.42
2018-08-17T10:18:33.754Z,1015.38
2018-08-17T10:19:33.649Z,1015.41
2018-08-17T10:20:33.455Z,1015.4
2018-08-17T10:21:35.220Z,1015.44
2018-08-17T10:22:33.759Z,1015.4
2018-08-17T10:23:33.702Z,1015.38
2018-08-17T10:24:33.703Z,1015.4
2018-08-17T10:25:33.757Z,1015.36
2018-08-17T10:26:33.452Z,1015.35
2018-08-17T10:27:33.614Z,1015.39
2018-08-17T10:28:33.609Z,1015.34
2018-08-17T10:29:33.438Z,1015.31
2018-08-17T10:30:33.488Z,1015.34
2018-08-17T10:31:33.651Z,1015.34
2018-08-17T10:32:33.755Z,1015.36
2018-08-17T10:33:33.657Z,1015.35
2018-08-17T10:34:33.554Z,1015.34
2018-08-17T10:35:33.522Z,1015.31
2018-08-17T10:36:33.839Z,1015.28
2018-08-17T10:37:33.563Z,1015.31
2018-08-17T10:38:33.784Z,1015.32
2018-08-17T10:39:33.646Z,1015.34
2018-08-17T10:40:33.890Z,1015.35
2018-08-17T10:41:33.719Z,1015.35
2018-08-17T10:42:33.843Z,1015.36
2018-08-17T10:43:34.093Z,1015.34
2018-08-17T10:44:33.764Z,1015.34
2018-08-17T10:45:33.956Z,1015.37
2018-08-17T10:46:34.188Z,1015.35
2018-08-17T10:47:33.558Z,1015.33
2018-08-17T10:48:33.872Z,1015.36
2018-08-17T10:49:33.829Z,1015.29
2018-08-17T10:50:33.560Z,1015.33
2018-08-17T10:51:33.946Z,1015.3
2018-08-17T10:52:33.752Z,1015.32
2018-08-17T10:53:33.599Z,1015.31
2018-08-17T10:54:33.691Z,1015.3
2018-08-17T10:55:33.976Z,1015.3
2018-08-17T10:56:33.473Z,1015.3
2018-08-17T10:57:34.449Z,1015.26
2018-08-17T10:58:34.043Z,1015.26
2018-08-17T10:59:33.717Z,1015.19
2018-08-17T11:00:34.212Z,1015.18
2018-08-17T11:01:33.652Z,1015.13
2018-08-17T11:02:33.764Z,1015.16
2018-08-17T11:03:33.514Z,1015.12
2018-08-17T11:04:33.778Z,1015.16
2018-08-17T11:05:33.617Z,1015.14
2018-08-17T11:06:33.717Z,1015.11
2018-08-17T11:07:33.945Z,1015.1
2018-08-17T11:08:33.646Z,1015.1
2018-08-17T11:09:33.835Z,1015.12
2018-08-17T11:10:33.709Z,1015.05
2018-08-17T11:11:33.691Z,1015.12
2018-08-17T11:12:33.696Z,1015.07
2018-08-17T11:13:33.773Z,1015.13
2018-08-17T11:14:33.432Z,1015.11
2018-08-17T11:15:33.475Z,1015.1
2018-08-17T11:16:33.651Z,1015.12
2018-08-17T11:17:33.946Z,1015.09
2018-08-17T11:18:33.717Z,1015.09
2018-08-17T11:19:33.714Z,1015.09
2018-08-17T11:20:33.699Z,1015.05
2018-08-17T11:21:33.784Z,1015.03
2018-08-17T11:22:33.783Z,1014.98
2018-08-17T11:23:33.653Z,1015.02
2018-08-17T11:24:33.649Z,1014.95
2018-08-17T11:25:33.666Z,1014.99
2018-08-17T11:26:33.986Z,1014.98
2018-08-17T11:27:33.736Z,1014.97
2018-08-17T11:28:34.269Z,1014.93
2018-08-17T11:29:33.521Z,1014.94
2018-08-17T11:30:33.928Z,1014.94
2018-08-17T11:31:33.647Z,1014.9
2018-08-17T11:32:33.571Z,1014.91
2018-08-17T11:33:33.563Z,1014.88
2018-08-17T11:34:33.447Z,1014.91
2018-08-17T11:35:33.797Z,1014.95
2018-08-17T11:36:33.615Z,1014.93
2018-08-17T11:37:34.147Z,1014.9
2018-08-17T11:38:33.621Z,1014.89
2018-08-17T11:39:33.628Z,1014.89
2018-08-17T11:40:33.668Z,1014.91
2018-08-17T11:41:33.969Z,1014.88
2018-08-17T11:42:33.526Z,1014.87
2018-08-17T11:43:33.733Z,1014.88
2018-08-17T11:44:33.882Z,1014.88
2018-08-17T11:45:34.079Z,1014.85
2018-08-17T11:46:33.501Z,1014.85
2018-08-17T11:47:33.504Z,1014.85
2018-08-17T11:48:33.561Z,1014.87
2018-08-17T11:49:33.533Z,1014.9
2018-08-17T11:50:33.907Z,1014.86
2018-08-17T11:51:33.743Z,1014.86
2018-08-17T11:52:33.450Z,1014.85
2018-08-17T11:53:33.898Z,1014.88
2018-08-17T11:54:33.600Z,1014.83
2018-08-17T11:55:33.772Z,1014.87
2018-08-17T11:56:33.675Z,1014.86
2018-08-17T11:57:33.709Z,1014.89
2018-08-17T11:58:33.760Z,1014.89
2018-08-17T11:59:33.943Z,1014.88
2018-08-17T12:00:33.935Z,1014.83
2018-08-17T12:01:33.421Z,1014.89
2018-08-17T12:02:33.670Z,1014.84
2018-08-17T12:03:33.651Z,1014.89
2018-08-17T12:04:33.849Z,1014.85
2018-08-17T12:05:34.186Z,1014.84
2018-08-17T12:06:33.953Z,1014.8
2018-08-17T12:07:33.875Z,1014.82
2018-08-17T12:08:33.995Z,1014.79